Time;durP1;ratioP1;P1;durP2;ratioP2;P2;SDS_P1;SDS_P2;PMS_P1;PMS_P2;Temp;Humidity;BMP_temperature;BMP_pressure;BME280_temperature;BME280_humidity;BME280_pressure;Samples;Min_cycle;Max_cycle;Signal;HPM_P1;HPM_P2
2021/07/25 00:01:44;;;;;;;26.08;13.80;;;;;;;;;;5013618;28;20060;-60
2021/07/25 00:04:14;;;;;;;26.75;13.10;;;;;;;;;;5026538;28;20037;-60
2021/07/25 00:06:42;;;;;;;25.38;12.25;;;;;;;;;;5031430;28;20036;-58
2021/07/25 00:09:10;;;;;;;18.58;9.55;;;;;;;;;;5028329;28;20697;-59
2021/07/25 00:11:39;;;;;;;16.50;7.88;;;;;;;;;;5030510;28;20052;-58
2021/07/25 00:14:07;;;;;;;0.30;0.30;;;;;;;;;;5031878;28;20036;-58
2021/07/25 00:16:33;;;;;;;0.35;0.35;;;;;;;;;;5032152;28;22012;-59
2021/07/25 00:19:09;;;;;;;0.30;0.30;;;;;;;;;;5046495;28;20048;-58
2021/07/25 00:21:35;;;;;;;0.17;0.17;;;;;;;;;;5029097;28;20045;-59
2021/07/25 00:24:01;;;;;;;0.15;0.15;;;;;;;;;;5002983;28;20106;-58
2021/07/25 00:26:34;;;;;;;0.15;0.08;;;;;;;;;;5026942;28;20757;-58
2021/07/25 00:28:59;;;;;;;0.10;0.10;;;;;;;;;;5028143;28;20877;-58
2021/07/25 00:31:27;;;;;;;0.20;0.20;;;;;;;;;;5030013;28;20139;-58
2021/07/25 00:33:55;;;;;;;0.70;0.70;;;;;;;;;;5029373;28;20603;-58
2021/07/25 00:36:23;;;;;;;0.00;0.00;;;;;;;;;;5027474;28;20578;-59
2021/07/25 00:38:49;;;;;;;0.60;0.60;;;;;;;;;;5032123;28;20040;-58
2021/07/25 00:43:05;;;;;;;0.10;0.10;;;;;;;;;;5075046;27;20790;-57
2021/07/25 00:45:39;;;;;;;0.10;0.05;;;;;;;;;;5072686;28;20558;-57
2021/07/25 00:48:05;;;;;;;0.57;0.43;;;;;;;;;;5079414;28;20376;-57
2021/07/25 00:50:33;;;;;;;0.00;0.00;;;;;;;;;;5075029;28;20036;-57
2021/07/25 00:52:58;;;;;;;0.08;0.08;;;;;;;;;;5075234;28;20046;-57
2021/07/25 00:55:27;;;;;;;0.32;0.32;;;;;;;;;;5075451;28;20028;-57
2021/07/25 00:57:52;;;;;;;0.55;0.55;;;;;;;;;;5059041;28;20035;-58
2021/07/25 01:00:20;;;;;;;0.08;0.08;;;;;;;;;;5073875;28;20056;-59
2021/07/25 01:02:59;;;;;;;0.30;0.22;;;;;;;;;;5073335;28;20048;-59
2021/07/25 01:05:31;;;;;;;0.28;0.28;;;;;;;;;;5070129;28;20028;-59
2021/07/25 01:08:06;;;;;;;3.83;0.30;;;;;;;;;;5072769;28;21306;-59
2021/07/25 01:10:36;;;;;;;0.10;0.10;;;;;;;;;;5062130;28;20154;-58
2021/07/25 01:13:10;;;;;;;0.30;0.30;;;;;;;;;;5073547;28;20034;-58
2021/07/25 01:15:39;;;;;;;0.35;0.35;;;;;;;;;;5073234;28;20020;-58
2021/07/25 01:18:09;;;;;;;0.43;0.43;;;;;;;;;;5071497;28;20028;-58
2021/07/25 01:20:37;;;;;;;0.00;0.00;;;;;;;;;;5074238;28;20020;-57
2021/07/25 01:23:02;;;;;;;0.00;0.00;;;;;;;;;;5054431;28;20035;-57
2021/07/25 01:25:30;;;;;;;0.93;0.35;;;;;;;;;;5073061;28;20067;-58
2021/07/25 01:28:13;;;;;;;1.38;0.22;;;;;;;;;;5056205;28;20170;-58
2021/07/25 01:30:40;;;;;;;2.10;1.75;;;;;;;;;;5072286;28;20066;-59
2021/07/25 01:33:23;;;;;;;0.47;0.45;;;;;;;;;;5072605;28;20313;-59
2021/07/25 01:35:50;;;;;;;0.00;0.00;;;;;;;;;;5078329;28;20046;-57
2021/07/25 01:38:15;;;;;;;0.25;0.25;;;;;;;;;;5074237;28;20031;-58
2021/07/25 01:40:59;;;;;;;0.65;0.65;;;;;;;;;;5071392;28;20312;-59
2021/07/25 01:43:27;;;;;;;0.10;0.10;;;;;;;;;;5079914;28;20067;-60
2021/07/25 01:45:52;;;;;;;0.25;0.25;;;;;;;;;;5073933;28;20032;-61
2021/07/25 01:48:20;;;;;;;0.25;0.25;;;;;;;;;;5078157;28;20106;-59
2021/07/25 01:50:48;;;;;;;0.00;0.00;;;;;;;;;;5071746;28;20040;-59
2021/07/25 01:53:15;;;;;;;0.30;0.30;;;;;;;;;;5072336;28;21943;-58
2021/07/25 01:55:45;;;;;;;0.00;0.00;;;;;;;;;;5039034;28;20025;-58
2021/07/25 01:58:11;;;;;;;0.10;0.10;;;;;;;;;;5037280;28;20028;-58
2021/07/25 02:00:39;;;;;;;0.77;0.77;;;;;;;;;;5040045;28;20581;-59
2021/07/25 02:03:07;;;;;;;0.47;0.47;;;;;;;;;;5057235;28;20033;-58
2021/07/25 02:05:37;;;;;;;0.52;0.50;;;;;;;;;;5061134;28;20024;-59
2021/07/25 02:08:08;;;;;;;1.77;0.32;;;;;;;;;;5058979;28;20094;-59
2021/07/25 02:10:35;;;;;;;0.10;0.10;;;;;;;;;;5059992;28;20113;-59
2021/07/25 02:13:03;;;;;;;0.28;0.28;;;;;;;;;;5055351;28;20039;-58
2021/07/25 02:15:34;;;;;;;0.00;0.00;;;;;;;;;;5041314;28;20579;-58
2021/07/25 02:18:01;;;;;;;0.00;0.00;;;;;;;;;;5059320;28;20146;-57
2021/07/25 02:20:27;;;;;;;0.45;0.30;;;;;;;;;;5026020;28;20029;-58
2021/07/25 02:22:52;;;;;;;0.13;0.13;;;;;;;;;;5057971;28;20068;-58
2021/07/25 02:25:20;;;;;;;0.10;0.10;;;;;;;;;;5056053;28;20035;-58
2021/07/25 02:27:50;;;;;;;0.00;0.00;;;;;;;;;;5040821;28;20032;-57
2021/07/25 02:30:18;;;;;;;0.10;0.10;;;;;;;;;;5032499;28;20387;-57
2021/07/25 02:32:47;;;;;;;2.10;0.20;;;;;;;;;;5056785;28;22153;-58
2021/07/25 02:35:15;;;;;;;0.25;0.25;;;;;;;;;;5059112;28;21257;-56
2021/07/25 02:37:45;;;;;;;0.43;0.43;;;;;;;;;;5056656;28;20067;-56
2021/07/25 02:40:15;;;;;;;1.08;0.63;;;;;;;;;;5058990;28;20040;-57
2021/07/25 02:42:41;;;;;;;0.08;0.08;;;;;;;;;;5060712;28;20048;-57
2021/07/25 02:45:11;;;;;;;0.25;0.25;;;;;;;;;;5055582;28;20118;-57
2021/07/25 02:47:37;;;;;;;0.40;0.40;;;;;;;;;;5059017;28;20054;-57
2021/07/25 02:50:02;;;;;;;0.70;0.65;;;;;;;;;;5059192;28;20055;-57
2021/07/25 02:52:30;;;;;;;0.65;0.40;;;;;;;;;;5063725;28;20044;-58
2021/07/25 02:54:58;;;;;;;2.50;0.50;;;;;;;;;;5067088;28;20017;-58
2021/07/25 02:57:26;;;;;;;0.47;0.47;;;;;;;;;;5057418;28;20764;-57
2021/07/25 02:59:56;;;;;;;0.40;0.40;;;;;;;;;;5046568;28;20040;-57
2021/07/25 03:02:26;;;;;;;0.52;0.52;;;;;;;;;;5056090;28;20035;-58
2021/07/25 03:04:54;;;;;;;0.15;0.15;;;;;;;;;;5055607;28;20042;-58
2021/07/25 03:07:24;;;;;;;0.00;0.00;;;;;;;;;;5059553;28;20034;-58
2021/07/25 03:09:54;;;;;;;0.10;0.10;;;;;;;;;;5057690;28;20082;-58
2021/07/25 03:12:22;;;;;;;0.00;0.00;;;;;;;;;;5040758;28;20036;-58
2021/07/25 03:14:50;;;;;;;2.55;1.10;;;;;;;;;;5070800;28;20767;-58
2021/07/25 03:17:18;;;;;;;0.22;0.22;;;;;;;;;;5057746;28;20534;-57
2021/07/25 03:19:46;;;;;;;0.40;0.40;;;;;;;;;;5037452;28;20036;-57
2021/07/25 03:22:14;;;;;;;0.00;0.00;;;;;;;;;;5057829;28;20036;-57
2021/07/25 03:24:39;;;;;;;0.35;0.35;;;;;;;;;;5038511;28;20025;-57
2021/07/25 03:27:05;;;;;;;0.10;0.10;;;;;;;;;;5059833;28;20094;-57
2021/07/25 03:29:35;;;;;;;0.15;0.15;;;;;;;;;;5044114;28;20038;-57
2021/07/25 03:32:02;;;;;;;0.00;0.00;;;;;;;;;;5042090;28;20032;-57
2021/07/25 03:34:33;;;;;;;0.45;0.45;;;;;;;;;;5055797;28;20356;-58
2021/07/25 03:37:04;;;;;;;0.00;0.00;;;;;;;;;;5059629;28;21030;-57
2021/07/25 03:39:31;;;;;;;0.00;0.00;;;;;;;;;;5265687;22;20539;-57
2021/07/25 03:41:56;;;;;;;0.00;0.00;;;;;;;;;;5042436;28;20111;-58
2021/07/25 03:44:27;;;;;;;0.00;0.00;;;;;;;;;;5042687;28;20654;-58
2021/07/25 03:46:55;;;;;;;0.35;0.35;;;;;;;;;;5024475;28;20029;-57
2021/07/25 03:49:24;;;;;;;2.03;0.28;;;;;;;;;;5024085;28;20092;-58
2021/07/25 03:51:54;;;;;;;0.00;0.00;;;;;;;;;;5041924;28;20725;-59
2021/07/25 03:54:24;;;;;;;0.00;0.00;;;;;;;;;;5040535;28;20033;-58
2021/07/25 03:56:52;;;;;;;0.25;0.25;;;;;;;;;;5040131;28;20045;-58
2021/07/25 03:59:20;;;;;;;0.10;0.10;;;;;;;;;;5026280;28;20119;-57
2021/07/25 04:01:55;;;;;;;1.08;0.52;;;;;;;;;;5006498;28;20040;-58
2021/07/25 04:04:21;;;;;;;0.00;0.00;;;;;;;;;;5023651;28;20040;-58
2021/07/25 04:06:46;;;;;;;0.00;0.00;;;;;;;;;;5020925;28;20988;-59
2021/07/25 04:09:32;;;;;;;0.00;0.00;;;;;;;;;;5023653;28;20052;-59
2021/07/25 04:11:59;;;;;;;0.00;0.00;;;;;;;;;;5040854;28;22004;-60
2021/07/25 04:14:27;;;;;;;0.43;0.43;;;;;;;;;;5006184;28;20032;-57
2021/07/25 04:16:57;;;;;;;0.00;0.00;;;;;;;;;;5041392;28;20020;-59
2021/07/25 04:19:28;;;;;;;0.28;0.28;;;;;;;;;;5026545;28;20452;-59
2021/07/25 04:21:56;;;;;;;0.10;0.10;;;;;;;;;;5039077;28;20123;-58
2021/07/25 04:24:21;;;;;;;0.00;0.00;;;;;;;;;;5005985;28;20036;-60
2021/07/25 04:26:49;;;;;;;0.00;0.00;;;;;;;;;;5041993;28;20028;-57
2021/07/25 04:32:21;;;;;;;0.25;0.25;;;;;;;;;;5041839;28;20044;-57
2021/07/25 04:34:47;;;;;;;0.90;0.70;;;;;;;;;;4989476;28;20044;-57
2021/07/25 04:37:22;;;;;;;0.05;0.05;;;;;;;;;;5023544;28;20123;-58
2021/07/25 04:40:25;;;;;;;0.17;0.17;;;;;;;;;;5014612;28;20559;-58
2021/07/25 04:43:22;;;;;;;0.00;0.00;;;;;;;;;;4994265;28;20048;-57
2021/07/25 04:45:57;;;;;;;0.20;0.20;;;;;;;;;;4995563;28;20561;-57
2021/07/25 04:48:25;;;;;;;0.00;0.00;;;;;;;;;;4995614;28;20029;-58
2021/07/25 04:57:37;;;;;;;0.03;0.03;;;;;;;;;;4995711;28;20048;-57
2021/07/25 05:00:30;;;;;;;0.00;0.00;;;;;;;;;;4993153;28;20038;-58
2021/07/25 05:03:00;;;;;;;0.00;0.00;;;;;;;;;;4994543;28;20069;-59
2021/07/25 05:05:28;;;;;;;0.13;0.13;;;;;;;;;;5000895;28;20069;-59
2021/07/25 05:07:55;;;;;;;0.10;0.10;;;;;;;;;;4995406;28;20938;-57
2021/07/25 05:10:22;;;;;;;0.10;0.10;;;;;;;;;;4992547;28;20034;-58
2021/07/25 05:13:11;;;;;;;0.20;0.20;;;;;;;;;;4994179;28;20041;-58
2021/07/25 05:15:41;;;;;;;0.20;0.20;;;;;;;;;;4994650;28;20040;-57
2021/07/25 05:21:50;;;;;;;0.03;0.03;;;;;;;;;;4994722;28;20048;-58
2021/07/25 05:24:20;;;;;;;0.00;0.00;;;;;;;;;;4991776;28;20038;-58
2021/07/25 05:26:46;;;;;;;0.13;0.13;;;;;;;;;;4976231;28;20148;-58
2021/07/25 05:29:17;;;;;;;0.00;0.00;;;;;;;;;;5000825;28;20033;-58
2021/07/25 05:35:20;;;;;;;0.00;0.00;;;;;;;;;;4998116;28;20045;-57
2021/07/25 05:37:48;;;;;;;0.80;0.70;;;;;;;;;;5001108;28;20223;-57
2021/07/25 05:40:15;;;;;;;0.08;0.05;;;;;;;;;;4996152;28;20033;-58
2021/07/25 05:42:49;;;;;;;0.47;0.47;;;;;;;;;;5035942;28;20068;-58
2021/07/25 05:45:17;;;;;;;0.20;0.20;;;;;;;;;;5010829;28;20166;-59
2021/07/25 05:47:44;;;;;;;0.00;0.00;;;;;;;;;;5021557;28;21051;-59
2021/07/25 05:50:10;;;;;;;0.30;0.20;;;;;;;;;;5007250;28;20068;-59
2021/07/25 05:52:48;;;;;;;0.00;0.00;;;;;;;;;;5021727;28;20123;-58
2021/07/25 05:55:19;;;;;;;0.52;0.47;;;;;;;;;;5020986;28;20113;-58
2021/07/25 06:01:20;;;;;;;0.35;0.35;;;;;;;;;;5035915;28;20043;-59
2021/07/25 06:03:45;;;;;;;0.10;0.10;;;;;;;;;;5017973;28;20033;-58
2021/07/25 06:06:22;;;;;;;0.45;0.08;;;;;;;;;;5023199;28;20052;-59
2021/07/25 06:09:03;;;;;;;0.32;0.20;;;;;;;;;;5017746;28;20072;-58
2021/07/25 06:11:43;;;;;;;0.40;0.40;;;;;;;;;;5015969;28;20112;-58
2021/07/25 06:14:08;;;;;;;0.52;0.38;;;;;;;;;;5035495;28;20075;-58
2021/07/25 06:16:44;;;;;;;0.00;0.00;;;;;;;;;;5018231;28;20032;-59
2021/07/25 06:19:09;;;;;;;;;;;;;;;;;;5015533;28;20036;-59
2021/07/25 06:21:58;;;;;;;1.70;1.07;;;;;;;;;;5033300;28;19916;-59
2021/07/25 06:24:46;;;;;;;0.10;0.10;;;;;;;;;;5005261;28;21060;-60
2021/07/25 06:27:14;;;;;;;0.00;0.00;;;;;;;;;;5018240;28;20043;-59
2021/07/25 06:33:20;;;;;;;0.38;0.32;;;;;;;;;;5036747;28;20036;-60
2021/07/25 06:35:48;;;;;;;0.22;0.22;;;;;;;;;;5008846;28;20120;-57
2021/07/25 06:38:38;;;;;;;0.60;0.60;;;;;;;;;;5020593;28;20035;-58
2021/07/25 06:41:06;;;;;;;0.28;0.17;;;;;;;;;;5015579;28;20141;-59
2021/07/25 06:43:33;;;;;;;0.22;0.22;;;;;;;;;;5012534;28;20086;-59
2021/07/25 06:46:01;;;;;;;0.00;0.00;;;;;;;;;;5030966;28;20028;-59
2021/07/25 06:52:08;;;;;;;0.00;0.00;;;;;;;;;;5030045;28;20596;-59
2021/07/25 06:54:34;;;;;;;0.88;0.35;;;;;;;;;;5014361;28;20064;-60
2021/07/25 06:56:59;;;;;;;0.05;0.05;;;;;;;;;;5032240;28;20025;-59
2021/07/25 06:59:25;;;;;;;0.60;0.45;;;;;;;;;;5013003;28;20033;-59
2021/07/25 07:01:53;;;;;;;0.35;0.30;;;;;;;;;;5017331;28;20991;-60
2021/07/25 07:04:18;;;;;;;0.70;0.60;;;;;;;;;;5028545;28;20024;-59
2021/07/25 07:06:48;;;;;;;0.40;0.30;;;;;;;;;;5030431;28;20066;-61
2021/07/25 07:09:14;;;;;;;0.30;0.30;;;;;;;;;;5014029;28;20394;-60
2021/07/25 07:11:39;;;;;;;0.60;0.28;;;;;;;;;;5029622;28;20044;-61
2021/07/25 07:14:09;;;;;;;0.40;0.40;;;;;;;;;;5030137;28;20032;-60
2021/07/25 07:16:46;;;;;;;0.30;0.30;;;;;;;;;;5012517;28;20037;-60
2021/07/25 07:23:01;;;;;;;0.38;0.32;;;;;;;;;;5030478;28;20534;-60
2021/07/25 07:25:29;;;;;;;1.77;0.43;;;;;;;;;;5031383;28;20029;-61
2021/07/25 07:27:54;;;;;;;0.00;0.00;;;;;;;;;;5009215;28;20150;-60
2021/07/25 07:30:22;;;;;;;0.00;0.00;;;;;;;;;;5014449;28;20467;-61
2021/07/25 07:32:48;;;;;;;0.00;0.00;;;;;;;;;;5028990;28;20036;-59
2021/07/25 07:35:13;;;;;;;2.83;0.80;;;;;;;;;;5012774;28;20121;-61
2021/07/25 07:37:39;;;;;;;2.75;0.20;;;;;;;;;;5029475;28;20029;-62
2021/07/25 07:40:05;;;;;;;0.00;0.00;;;;;;;;;;5034120;28;20078;-61
2021/07/25 07:42:30;;;;;;;0.10;0.10;;;;;;;;;;5023024;28;20056;-62
2021/07/25 07:44:59;;;;;;;0.65;0.10;;;;;;;;;;5013963;28;20115;-63
2021/07/25 07:47:24;;;;;;;0.20;0.13;;;;;;;;;;5013058;28;20052;-61
2021/07/25 07:53:04;;;;;;;0.10;0.10;;;;;;;;;;5012520;28;20033;-61
2021/07/25 07:55:32;;;;;;;0.40;0.40;;;;;;;;;;5006690;28;20059;-61
2021/07/25 07:57:59;;;;;;;0.90;0.45;;;;;;;;;;5010870;28;20037;-62
2021/07/25 08:00:44;;;;;;;0.93;0.30;;;;;;;;;;5009005;28;20037;-63
2021/07/25 08:03:12;;;;;;;0.00;0.00;;;;;;;;;;5015475;28;20751;-62
2021/07/25 08:05:37;;;;;;;1.27;0.30;;;;;;;;;;4998147;28;20029;-63
2021/07/25 08:08:07;;;;;;;1.67;0.52;;;;;;;;;;4983479;28;20096;-62
2021/07/25 08:10:33;;;;;;;0.35;0.22;;;;;;;;;;5016232;28;20041;-63
2021/07/25 08:12:58;;;;;;;0.03;0.03;;;;;;;;;;5014030;28;20063;-63
2021/07/25 08:15:24;;;;;;;0.32;0.32;;;;;;;;;;5017556;28;20407;-62
2021/07/25 08:18:21;;;;;;;0.15;0.15;;;;;;;;;;5013857;28;20111;-64
2021/07/25 08:20:49;;;;;;;1.88;0.30;;;;;;;;;;5014884;28;20599;-61
2021/07/25 08:23:17;;;;;;;0.28;0.28;;;;;;;;;;5012466;28;20078;-61
2021/07/25 08:25:45;;;;;;;0.68;0.65;;;;;;;;;;4999349;28;20041;-60
2021/07/25 08:32:05;;;;;;;1.27;0.38;;;;;;;;;;5014033;28;20056;-62
2021/07/25 08:34:31;;;;;;;0.40;0.40;;;;;;;;;;5029130;28;20040;-62
2021/07/25 08:36:57;;;;;;;0.00;0.00;;;;;;;;;;5016741;28;20029;-61
2021/07/25 08:39:22;;;;;;;0.00;0.00;;;;;;;;;;5011221;28;21307;-61
2021/07/25 08:41:48;;;;;;;0.55;0.20;;;;;;;;;;5025812;28;20036;-63
2021/07/25 08:44:33;;;;;;;0.30;0.30;;;;;;;;;;5034186;28;20674;-64
2021/07/25 08:46:58;;;;;;;0.05;0.05;;;;;;;;;;5022279;28;20032;-63
2021/07/25 08:49:34;;;;;;;1.10;0.63;;;;;;;;;;5034660;28;20042;-64
2021/07/25 08:52:03;;;;;;;0.30;0.30;;;;;;;;;;5035695;28;20029;-64
2021/07/25 08:54:34;;;;;;;0.30;0.30;;;;;;;;;;5033816;28;20036;-64
2021/07/25 08:57:05;;;;;;;0.10;0.10;;;;;;;;;;5015953;28;20044;-63
2021/07/25 08:59:34;;;;;;;0.30;0.30;;;;;;;;;;5021112;28;20048;-63
2021/07/25 09:02:00;;;;;;;0.15;0.15;;;;;;;;;;5019256;28;21107;-61
2021/07/25 09:04:26;;;;;;;0.47;0.47;;;;;;;;;;5038474;28;20089;-63
2021/07/25 09:06:54;;;;;;;0.00;0.00;;;;;;;;;;5039259;28;20031;-64
2021/07/25 09:09:47;;;;;;;0.57;0.43;;;;;;;;;;5039561;28;20044;-63
2021/07/25 09:12:14;;;;;;;2.75;0.85;;;;;;;;;;5037808;28;20044;-64
2021/07/25 09:14:47;;;;;;;0.35;0.35;;;;;;;;;;5037973;28;20028;-64
2021/07/25 09:17:25;;;;;;;5.10;1.63;;;;;;;;;;5019592;28;20033;-64
2021/07/25 09:20:17;;;;;;;4.80;0.73;;;;;;;;;;5025323;28;20059;-63
2021/07/25 09:22:49;;;;;;;0.10;0.10;;;;;;;;;;5021076;28;20037;-63
2021/07/25 09:25:21;;;;;;;0.05;0.05;;;;;;;;;;5012867;28;20613;-63
2021/07/25 09:27:56;;;;;;;0.28;0.28;;;;;;;;;;5038781;28;20037;-62
2021/07/25 09:30:28;;;;;;;1.80;0.38;;;;;;;;;;5017786;28;20028;-61
2021/07/25 09:32:54;;;;;;;0.00;0.00;;;;;;;;;;5022751;28;20139;-63
2021/07/25 09:35:24;;;;;;;0.32;0.22;;;;;;;;;;5027803;28;20978;-63
2021/07/25 09:37:53;;;;;;;0.63;0.20;;;;;;;;;;5037170;28;20033;-62
2021/07/25 09:40:25;;;;;;;0.22;0.22;;;;;;;;;;5038611;28;21147;-62
2021/07/25 09:43:06;;;;;;;0.65;0.45;;;;;;;;;;5001966;28;20045;-62
2021/07/25 09:45:32;;;;;;;0.75;0.30;;;;;;;;;;5003604;28;20071;-62
2021/07/25 09:48:09;;;;;;;0.35;0.35;;;;;;;;;;5033889;28;21839;-62
2021/07/25 09:50:37;;;;;;;0.22;0.22;;;;;;;;;;5019796;28;20498;-63
2021/07/25 09:56:39;;;;;;;0.30;0.30;;;;;;;;;;5037866;28;20039;-63
2021/07/25 09:59:21;;;;;;;0.52;0.52;;;;;;;;;;5016909;28;20044;-62
2021/07/25 10:01:55;;;;;;;0.00;0.00;;;;;;;;;;5038061;28;20123;-64
2021/07/25 10:07:56;;;;;;;0.32;0.30;;;;;;;;;;5039137;28;20040;-63
2021/07/25 10:10:22;;;;;;;0.20;0.20;;;;;;;;;;5024148;28;20045;-63
2021/07/25 10:12:47;;;;;;;0.20;0.20;;;;;;;;;;5004807;28;20033;-62
2021/07/25 10:15:17;;;;;;;0.55;0.08;;;;;;;;;;5034108;28;20025;-63
2021/07/25 10:17:44;;;;;;;0.25;0.25;;;;;;;;;;5025518;28;20332;-62
2021/07/25 10:20:10;;;;;;;1.65;0.63;;;;;;;;;;5037588;28;20337;-63
2021/07/25 10:22:36;;;;;;;0.20;0.20;;;;;;;;;;5036412;28;20139;-64
2021/07/25 10:25:04;;;;;;;0.50;0.50;;;;;;;;;;5006755;28;20119;-64
2021/07/25 10:27:58;;;;;;;0.30;0.30;;;;;;;;;;5020332;28;20041;-64
2021/07/25 10:30:28;;;;;;;0.30;0.30;;;;;;;;;;5035639;28;22796;-62
2021/07/25 10:36:29;;;;;;;;;;;;;;;;;;5035715;28;20474;-63
2021/07/25 10:38:55;;;;;;;0.30;0.30;;;;;;;;;;5025949;28;20066;-63
2021/07/25 10:41:25;;;;;;;0.00;0.00;;;;;;;;;;5034362;28;20047;-63
2021/07/25 10:47:26;;;;;;;0.10;0.10;;;;;;;;;;5036223;28;20041;-63
2021/07/25 10:49:55;;;;;;;0.55;0.55;;;;;;;;;;5035769;28;20479;-63
2021/07/25 10:52:23;;;;;;;0.22;0.22;;;;;;;;;;5025943;28;20119;-63
2021/07/25 10:54:49;;;;;;;0.20;0.20;;;;;;;;;;5021934;28;20037;-63
2021/07/25 10:57:20;;;;;;;3.28;0.63;;;;;;;;;;5008788;28;20099;-63
2021/07/25 10:59:50;;;;;;;0.70;0.63;;;;;;;;;;5007861;28;20619;-62
2021/07/25 11:02:24;;;;;;;0.03;0.03;;;;;;;;;;5018225;28;20176;-63
2021/07/25 11:09:04;;;;;;;0.70;0.28;;;;;;;;;;5018831;28;20099;-62
2021/07/25 11:12:09;;;;;;;2.00;0.10;;;;;;;;;;5034503;28;20062;-62
2021/07/25 11:18:01;;;;;;;1.02;0.77;;;;;;;;;;5036549;28;20037;-62
2021/07/25 11:20:36;;;;;;;0.08;0.08;;;;;;;;;;5018744;28;20126;-62
2021/07/25 11:23:03;;;;;;;0.40;0.40;;;;;;;;;;5033284;28;20139;-63
2021/07/25 11:25:35;;;;;;;0.05;0.05;;;;;;;;;;5034887;28;20093;-62
2021/07/25 11:28:03;;;;;;;0.45;0.43;;;;;;;;;;5036325;28;20033;-62
2021/07/25 11:30:48;;;;;;;0.28;0.28;;;;;;;;;;5034362;28;20044;-61
2021/07/25 11:33:34;;;;;;;0.20;0.20;;;;;;;;;;5033017;28;20024;-63
2021/07/25 11:36:03;;;;;;;0.40;0.40;;;;;;;;;;5035755;28;20025;-61
2021/07/25 11:38:35;;;;;;;0.88;0.80;;;;;;;;;;5003312;28;20043;-63
2021/07/25 11:41:04;;;;;;;0.38;0.35;;;;;;;;;;5035481;28;20032;-61
2021/07/25 11:43:49;;;;;;;0.10;0.10;;;;;;;;;;5034568;28;20040;-62
2021/07/25 11:46:33;;;;;;;0.25;0.25;;;;;;;;;;5017224;28;20071;-62
2021/07/25 11:49:27;;;;;;;1.33;0.28;;;;;;;;;;5032773;28;20033;-62
2021/07/25 11:52:02;;;;;;;0.05;0.05;;;;;;;;;;5032834;28;20085;-62
2021/07/25 11:54:33;;;;;;;0.73;0.38;;;;;;;;;;5035198;28;20046;-63
2021/07/25 12:00:12;;;;;;;0.32;0.32;;;;;;;;;;5014519;28;20051;-63
2021/07/25 12:02:39;;;;;;;0.32;0.17;;;;;;;;;;5001284;28;20033;-63
2021/07/25 12:05:09;;;;;;;0.17;0.17;;;;;;;;;;5019074;28;20063;-63
2021/07/25 12:08:02;;;;;;;0.05;0.05;;;;;;;;;;5008216;28;20486;-64
2021/07/25 12:10:31;;;;;;;0.45;0.30;;;;;;;;;;5019891;28;20952;-63
2021/07/25 12:13:07;;;;;;;1.17;0.90;;;;;;;;;;5034542;28;20114;-63
2021/07/25 12:18:52;;;;;;;0.57;0.57;;;;;;;;;;5034173;28;20047;-63
2021/07/25 12:21:37;;;;;;;0.30;0.30;;;;;;;;;;5013717;28;20067;-63
2021/07/25 12:24:02;;;;;;;0.52;0.13;;;;;;;;;;5022768;28;20028;-64
2021/07/25 12:26:40;;;;;;;3.63;0.22;;;;;;;;;;5034697;28;20435;-63
2021/07/25 12:29:27;;;;;;;0.10;0.10;;;;;;;;;;5018185;28;20493;-63
2021/07/25 12:31:55;;;;;;;1.08;0.77;;;;;;;;;;5034920;28;20037;-65
2021/07/25 12:34:26;;;;;;;0.55;0.55;;;;;;;;;;5034803;28;20036;-62
2021/07/25 12:36:51;;;;;;;0.25;0.25;;;;;;;;;;5022174;28;20509;-62
2021/07/25 12:42:55;;;;;;;0.30;0.17;;;;;;;;;;5025430;28;20079;-63
2021/07/25 12:45:35;;;;;;;0.52;0.52;;;;;;;;;;5032549;28;20079;-63
2021/07/25 12:48:19;;;;;;;0.30;0.30;;;;;;;;;;5013116;28;20064;-63
2021/07/25 12:54:25;;;;;;;1.05;0.30;;;;;;;;;;5033112;28;20054;-64
2021/07/25 12:56:51;;;;;;;0.13;0.13;;;;;;;;;;5002507;28;20028;-64
2021/07/25 12:59:16;;;;;;;0.00;0.00;;;;;;;;;;5031870;28;20774;-64
2021/07/25 13:11:19;;;;;;;0.32;0.22;;;;;;;;;;5034878;28;20159;-63
2021/07/25 13:14:18;;;;;;;0.10;0.10;;;;;;;;;;5035127;28;20046;-64
2021/07/25 13:16:44;;;;;;;0.10;0.10;;;;;;;;;;5033599;28;20392;-65
2021/07/25 13:19:47;;;;;;;0.20;0.20;;;;;;;;;;5030723;28;20659;-64
2021/07/25 13:25:51;;;;;;;0.10;0.10;;;;;;;;;;5034391;28;20023;-65
2021/07/25 13:28:44;;;;;;;0.10;0.10;;;;;;;;;;5032828;28;20104;-63
2021/07/25 13:31:13;;;;;;;0.10;0.00;;;;;;;;;;5033502;28;20041;-63
2021/07/25 13:33:39;;;;;;;0.28;0.25;;;;;;;;;;5019409;28;20114;-63
2021/07/25 13:36:06;;;;;;;0.17;0.15;;;;;;;;;;5033626;28;20048;-62
2021/07/25 13:38:32;;;;;;;0.43;0.35;;;;;;;;;;5032837;28;20102;-62
2021/07/25 13:40:58;;;;;;;0.08;0.08;;;;;;;;;;5018098;28;20029;-64
2021/07/25 13:43:24;;;;;;;0.88;0.63;;;;;;;;;;5014498;28;20065;-64
2021/07/25 13:45:59;;;;;;;2.83;1.17;;;;;;;;;;5015310;28;20040;-64
2021/07/25 13:48:25;;;;;;;0.17;0.17;;;;;;;;;;5014381;28;20717;-63
2021/07/25 13:54:47;;;;;;;1.08;0.75;;;;;;;;;;5036320;28;20075;-63
2021/07/25 13:57:13;;;;;;;0.10;0.10;;;;;;;;;;5036766;28;20577;-62
2021/07/25 13:59:39;;;;;;;0.10;0.10;;;;;;;;;;5035393;28;20037;-63
2021/07/25 14:02:05;;;;;;;0.52;0.38;;;;;;;;;;5037051;28;20041;-63
2021/07/25 14:04:32;;;;;;;0.00;0.00;;;;;;;;;;5031865;28;20122;-63
2021/07/25 14:10:34;;;;;;;1.48;0.82;;;;;;;;;;5036391;28;20086;-63
2021/07/25 14:16:35;;;;;;;0.45;0.10;;;;;;;;;;5035100;28;20059;-63
2021/07/25 14:19:29;;;;;;;0.13;0.13;;;;;;;;;;5019893;28;20040;-63
2021/07/25 14:21:55;;;;;;;0.80;0.47;;;;;;;;;;5017040;28;20500;-64
2021/07/25 14:24:23;;;;;;;0.28;0.28;;;;;;;;;;5004229;28;20124;-64
2021/07/25 14:26:49;;;;;;;0.28;0.28;;;;;;;;;;5024180;28;20126;-64
2021/07/25 14:29:14;;;;;;;0.28;0.28;;;;;;;;;;5018420;28;20028;-63
2021/07/25 14:31:40;;;;;;;1.08;0.10;;;;;;;;;;5025560;28;20040;-63
2021/07/25 14:34:12;;;;;;;0.45;0.38;;;;;;;;;;5024613;28;20487;-64
2021/07/25 14:36:37;;;;;;;1.25;0.25;;;;;;;;;;5017333;28;20032;-63
2021/07/25 14:39:03;;;;;;;0.38;0.35;;;;;;;;;;5022636;28;20021;-64
2021/07/25 14:41:33;;;;;;;0.15;0.15;;;;;;;;;;5003470;28;20048;-64
2021/07/25 14:43:58;;;;;;;0.17;0.17;;;;;;;;;;5034343;28;20357;-64
2021/07/25 14:46:26;;;;;;;0.10;0.10;;;;;;;;;;5023196;28;20061;-64
2021/07/25 14:48:54;;;;;;;0.30;0.30;;;;;;;;;;5018224;28;20040;-63
2021/07/25 14:51:22;;;;;;;0.40;0.35;;;;;;;;;;5017798;28;22213;-64
2021/07/25 14:54:03;;;;;;;0.10;0.10;;;;;;;;;;5016382;28;20194;-64
2021/07/25 14:56:31;;;;;;;0.08;0.08;;;;;;;;;;5004311;28;20021;-63
2021/07/25 14:58:57;;;;;;;3.75;0.88;;;;;;;;;;5014883;28;20037;-63
2021/07/25 15:05:07;;;;;;;;;;;;;;;;;;5029336;28;20066;-63
2021/07/25 15:07:33;;;;;;;0.10;0.10;;;;;;;;;;5008836;28;19939;-63
2021/07/25 15:10:03;;;;;;;0.55;0.55;;;;;;;;;;5019303;28;20035;-63
2021/07/25 15:12:30;;;;;;;0.63;0.63;;;;;;;;;;5019632;28;20032;-64
2021/07/25 15:14:58;;;;;;;0.50;0.50;;;;;;;;;;5035154;28;20119;-64
2021/07/25 15:17:28;;;;;;;2.92;0.32;;;;;;;;;;5032767;28;20090;-64
2021/07/25 15:19:56;;;;;;;0.17;0.17;;;;;;;;;;5001746;28;20234;-63
2021/07/25 15:22:22;;;;;;;0.10;0.10;;;;;;;;;;5021905;28;20850;-62
2021/07/25 15:24:47;;;;;;;0.40;0.40;;;;;;;;;;5018284;28;20045;-62
2021/07/25 15:30:50;;;;;;;0.10;0.08;;;;;;;;;;5035875;28;20035;-63
2021/07/25 15:33:21;;;;;;;0.47;0.47;;;;;;;;;;5015968;28;20597;-63
2021/07/25 15:35:47;;;;;;;0.20;0.20;;;;;;;;;;5035344;28;20048;-63
2021/07/25 15:38:13;;;;;;;1.00;0.50;;;;;;;;;;5034380;28;20940;-64
2021/07/25 15:40:38;;;;;;;3.88;0.30;;;;;;;;;;5024850;28;20048;-61
2021/07/25 15:43:04;;;;;;;0.22;0.22;;;;;;;;;;5016124;28;20040;-63
2021/07/25 15:52:20;;;;;;;0.30;0.25;;;;;;;;;;5035255;28;21051;-62
2021/07/25 15:54:46;;;;;;;1.90;0.65;;;;;;;;;;5018414;28;20021;-62
2021/07/25 15:57:11;;;;;;;0.10;0.10;;;;;;;;;;5002379;28;20047;-62
2021/07/25 15:59:37;;;;;;;0.25;0.25;;;;;;;;;;5018057;28;22213;-62
2021/07/25 16:02:06;;;;;;;0.15;0.15;;;;;;;;;;5033809;28;20294;-63
2021/07/25 16:04:31;;;;;;;0.08;0.08;;;;;;;;;;5034308;28;20052;-62
2021/07/25 16:06:59;;;;;;;0.38;0.38;;;;;;;;;;5032856;28;20735;-62
2021/07/25 16:09:25;;;;;;;0.00;0.00;;;;;;;;;;4999708;28;20044;-62
2021/07/25 16:11:50;;;;;;;0.08;0.08;;;;;;;;;;5031336;28;20036;-62
2021/07/25 16:17:22;;;;;;;1.10;0.70;;;;;;;;;;5031419;28;20126;-64
2021/07/25 16:19:50;;;;;;;0.25;0.25;;;;;;;;;;5000901;28;21085;-62
2021/07/25 16:22:16;;;;;;;0.00;0.00;;;;;;;;;;5003978;28;20029;-62
2021/07/25 16:24:42;;;;;;;1.00;0.55;;;;;;;;;;5031890;28;20063;-63
2021/07/25 16:27:20;;;;;;;1.00;0.68;;;;;;;;;;5014689;28;20025;-63
2021/07/25 16:33:22;;;;;;;0.30;0.30;;;;;;;;;;5033436;28;20066;-62
2021/07/25 16:35:51;;;;;;;0.30;0.30;;;;;;;;;;5007060;28;20024;-62
2021/07/25 16:38:21;;;;;;;0.22;0.22;;;;;;;;;;5020317;28;20044;-63
2021/07/25 16:40:46;;;;;;;0.20;0.20;;;;;;;;;;5021628;28;20036;-62
2021/07/25 16:43:12;;;;;;;0.08;0.08;;;;;;;;;;5002986;28;20049;-62
2021/07/25 16:46:23;;;;;;;0.15;0.15;;;;;;;;;;4995578;28;20128;-62
2021/07/25 16:48:52;;;;;;;0.20;0.20;;;;;;;;;;4993319;28;20088;-62
2021/07/25 16:51:20;;;;;;;0.40;0.40;;;;;;;;;;4993931;28;20038;-61
2021/07/25 16:53:46;;;;;;;0.45;0.45;;;;;;;;;;4993474;28;20037;-62
2021/07/25 16:56:12;;;;;;;0.10;0.08;;;;;;;;;;4995285;28;20057;-63
2021/07/25 16:58:38;;;;;;;1.10;0.43;;;;;;;;;;4984585;28;20033;-63
2021/07/25 17:01:06;;;;;;;0.00;0.00;;;;;;;;;;4992403;28;20810;-63
2021/07/25 17:03:32;;;;;;;0.60;0.55;;;;;;;;;;4998158;28;20125;-63